createdAt,value
2022-10-24T00:00:10.472Z,100395.19
2022-10-24T00:00:43.839Z,100400.25
2022-10-24T00:01:19.016Z,100394.41
2022-10-24T00:01:50.305Z,100392.09
2022-10-24T00:02:21.653Z,100392.09
2022-10-24T00:02:53.237Z,100395.56
2022-10-24T00:03:24.936Z,100396.75
2022-10-24T00:03:56.297Z,100396.75
2022-10-24T00:04:27.737Z,100388.50
2022-10-24T00:04:59.076Z,100388.88
2022-10-24T00:05:30.422Z,100388.50
2022-10-24T00:06:01.781Z,100379.50
2022-10-24T00:06:33.194Z,100387.31
2022-10-24T00:07:06.248Z,100389.66
2022-10-24T00:07:37.544Z,100382.19
2022-10-24T00:08:09.831Z,100383.38
2022-10-24T00:08:43.162Z,100377.06
2022-10-24T00:09:14.860Z,100384.13
2022-10-24T00:09:46.380Z,100386.88
2022-10-24T00:10:18.548Z,100380.19
2022-10-24T00:10:50.233Z,100381.75
2022-10-24T00:11:27.324Z,100379.00
2022-10-24T00:11:58.659Z,100387.22
2022-10-24T00:12:30.057Z,100380.97
2022-10-24T00:13:01.360Z,100376.25
2022-10-24T00:13:33.720Z,100385.63
2022-10-24T00:14:05.287Z,100383.66
2022-10-24T00:14:37.552Z,100380.91
2022-10-24T00:15:09.292Z,100376.97
2022-10-24T00:15:44.589Z,100379.38
2022-10-24T00:16:15.926Z,100376.97
2022-10-24T00:16:47.230Z,100377.75
2022-10-24T00:17:18.525Z,100375.44
2022-10-24T00:17:49.979Z,100370.31
2022-10-24T00:18:21.285Z,100375.78
2022-10-24T00:18:52.640Z,100377.75
2022-10-24T00:19:23.927Z,100372.69
2022-10-24T00:19:55.237Z,100374.66
2022-10-24T00:20:26.932Z,100372.69
2022-10-24T00:20:58.296Z,100369.56
2022-10-24T00:21:29.639Z,100372.31
2022-10-24T00:22:01.236Z,100377.81
2022-10-24T00:22:32.647Z,100370.78
2022-10-24T00:23:04.587Z,100375.84
2022-10-24T00:23:37.171Z,100374.28
2022-10-24T00:24:08.695Z,100373.50
2022-10-24T00:24:40.096Z,100371.97
2022-10-24T00:25:11.425Z,100373.16
2022-10-24T00:25:42.770Z,100373.16
2022-10-24T00:26:15.645Z,100376.25
2022-10-24T00:26:46.980Z,100380.97
2022-10-24T00:27:18.507Z,100368.84
2022-10-24T00:27:49.807Z,100366.88
2022-10-24T00:28:21.169Z,100375.47
2022-10-24T00:28:52.570Z,100366.47
2022-10-24T00:29:24.267Z,100370.00
2022-10-24T00:29:55.845Z,100364.91
2022-10-24T00:30:27.204Z,100370.41
2022-10-24T00:30:58.721Z,100369.63
2022-10-24T00:31:30.165Z,100367.66
2022-10-24T00:32:01.676Z,100371.59
2022-10-24T00:32:33.303Z,100366.53
2022-10-24T00:33:04.671Z,100365.34
2022-10-24T00:33:36.337Z,100368.06
2022-10-24T00:34:07.967Z,100363.78
2022-10-24T00:34:39.260Z,100371.22
2022-10-24T00:35:15.683Z,100372.41
2022-10-24T00:35:47.037Z,100358.69
2022-10-24T00:36:21.215Z,100362.63
2022-10-24T00:36:52.512Z,100370.09
2022-10-24T00:37:23.877Z,100369.31
2022-10-24T00:37:55.584Z,100369.31
2022-10-24T00:38:27.039Z,100364.22
2022-10-24T00:38:58.413Z,100359.97
2022-10-24T00:39:29.944Z,100359.97
2022-10-24T00:40:01.314Z,100349.00
2022-10-24T00:40:32.605Z,100350.97
2022-10-24T00:41:03.996Z,100356.44
2022-10-24T00:41:38.784Z,100356.00
2022-10-24T00:42:11.829Z,100357.22
2022-10-24T00:42:43.301Z,100353.34
2022-10-24T00:43:23.962Z,100367.41
2022-10-24T00:44:23.175Z,100359.59
2022-10-24T00:44:54.541Z,100361.56
2022-10-24T00:45:40.264Z,100354.13
2022-10-24T00:46:12.031Z,100357.25
2022-10-24T00:47:08.373Z,100342.38
2022-10-24T00:47:39.694Z,100349.00
2022-10-24T00:48:16.148Z,100352.94
2022-10-24T00:48:51.777Z,100352.94
2022-10-24T00:49:27.158Z,100351.38
2022-10-24T00:50:04.737Z,100354.53
2022-10-24T00:50:36.416Z,100349.06
2022-10-24T00:51:28.548Z,100351.03
2022-10-24T00:52:07.861Z,100356.50
2022-10-24T00:52:44.556Z,100355.72
2022-10-24T00:53:16.550Z,100356.50
2022-10-24T00:53:52.102Z,100347.09
2022-10-24T00:54:23.692Z,100348.28
2022-10-24T00:54:57.092Z,100349.84
2022-10-24T00:55:29.043Z,100349.06
2022-10-24T00:56:03.446Z,100345.53
2022-10-24T00:57:00.123Z,100331.06
2022-10-24T00:57:36.976Z,100335.75
2022-10-24T00:58:09.707Z,100344.41
2022-10-24T00:58:44.356Z,100339.28
2022-10-24T00:59:18.320Z,100344.00
2022-10-24T00:59:54.269Z,100341.25
2022-10-24T01:00:29.692Z,100344.00
2022-10-24T01:01:02.058Z,100343.56
2022-10-24T01:01:34.242Z,100335.34
2022-10-24T01:02:05.796Z,100342.38
2022-10-24T01:02:37.913Z,100346.69
2022-10-24T01:03:11.659Z,100343.16
2022-10-24T01:03:43.057Z,100347.47
2022-10-24T01:04:15.329Z,100347.47
2022-10-24T01:04:48.156Z,100341.97
2022-10-24T01:05:22.661Z,100342.75
2022-10-24T01:06:18.452Z,100334.53
2022-10-24T01:07:05.430Z,100344.31
2022-10-24T01:07:57.386Z,100336.06
2022-10-24T01:08:51.868Z,100345.13
2022-10-24T01:09:38.138Z,100345.88
2022-10-24T01:10:15.337Z,100343.53
2022-10-24T01:11:14.312Z,100343.53
2022-10-24T01:12:05.021Z,100339.22
2022-10-24T01:12:50.877Z,100337.25
2022-10-24T01:13:51.431Z,100344.31
2022-10-24T01:14:50.660Z,100343.53
2022-10-24T01:15:36.065Z,100337.25
2022-10-24T01:16:13.201Z,100335.31
2022-10-24T01:16:49.123Z,100335.31
2022-10-24T01:17:34.067Z,100339.22
2022-10-24T01:18:19.816Z,100345.50
2022-10-24T01:19:03.028Z,100336.50
2022-10-24T01:20:07.136Z,100341.19
2022-10-24T01:21:12.696Z,100340.41
2022-10-24T01:21:57.450Z,100337.31
2022-10-24T01:22:42.419Z,100342.78
2022-10-24T01:23:38.645Z,100342.78
2022-10-24T01:24:26.125Z,100342.03
2022-10-24T01:25:13.715Z,100345.91
2022-10-24T01:25:50.837Z,100335.72
2022-10-24T01:26:43.841Z,100334.53
2022-10-24T01:27:39.197Z,100336.06
2022-10-24T01:28:22.276Z,100330.22
2022-10-24T01:29:19.734Z,100328.66
2022-10-24T01:30:11.335Z,100335.69
2022-10-24T01:30:46.794Z,100336.88
2022-10-24T01:31:29.343Z,100330.97
2022-10-24T01:32:31.308Z,100328.25
2022-10-24T01:33:18.416Z,100325.50
2022-10-24T01:33:55.559Z,100320.00
2022-10-24T01:34:33.924Z,100317.25
2022-10-24T01:35:28.087Z,100320.78
2022-10-24T01:36:14.399Z,100322.31
2022-10-24T01:37:09.731Z,100321.56
2022-10-24T01:37:53.578Z,100316.41
2022-10-24T01:38:57.791Z,100315.22
2022-10-24T01:39:34.304Z,100315.22
2022-10-24T01:40:13.041Z,100315.63
2022-10-24T01:41:06.515Z,100307.41
2022-10-24T01:41:40.376Z,100321.13
2022-10-24T01:42:15.675Z,100315.63
2022-10-24T01:42:50.086Z,100309.03
2022-10-24T01:43:32.110Z,100315.63
2022-10-24T01:44:09.180Z,100316.81
2022-10-24T01:44:44.276Z,100311.34
2022-10-24T01:45:22.888Z,100311.34
2022-10-24T01:46:01.014Z,100311.34
2022-10-24T01:46:40.015Z,100305.09
2022-10-24T01:47:18.437Z,100304.31
2022-10-24T01:47:54.818Z,100306.28
2022-10-24T01:48:31.605Z,100305.84
2022-10-24T01:49:07.997Z,100308.59
2022-10-24T01:49:44.285Z,100301.59
2022-10-24T01:50:17.352Z,100309.81
2022-10-24T01:50:52.644Z,100307.41
2022-10-24T01:51:27.015Z,100302.38
2022-10-24T01:52:02.792Z,100304.25
2022-10-24T01:52:39.204Z,100292.50
2022-10-24T01:53:12.473Z,100299.53
2022-10-24T01:53:46.454Z,100301.09
2022-10-24T01:54:18.212Z,100298.00
2022-10-24T01:54:49.713Z,100295.59
2022-10-24T01:55:21.888Z,100296.38
2022-10-24T01:55:54.282Z,100297.16
2022-10-24T01:56:26.642Z,100299.50
2022-10-24T01:56:58.400Z,100292.44
2022-10-24T01:57:32.207Z,100294.00
2022-10-24T01:58:03.496Z,100293.22
2022-10-24T01:58:34.916Z,100295.97
2022-10-24T01:59:29.258Z,100299.84
2022-10-24T02:00:01.360Z,100292.81
2022-10-24T02:00:32.823Z,100291.63
2022-10-24T02:01:10.143Z,100296.34
2022-10-24T02:01:41.579Z,100290.84
2022-10-24T02:02:26.491Z,100297.09
2022-10-24T02:03:04.030Z,100303.38
2022-10-24T02:03:45.218Z,100294.00
2022-10-24T02:04:16.740Z,100291.63
2022-10-24T02:04:55.736Z,100281.41
2022-10-24T02:05:42.301Z,100289.66
2022-10-24T02:06:25.193Z,100281.41
2022-10-24T02:07:00.254Z,100288.09
2022-10-24T02:07:33.871Z,100282.19
2022-10-24T02:08:12.336Z,100278.25
2022-10-24T02:08:50.150Z,100283.75
2022-10-24T02:09:22.420Z,100282.16
2022-10-24T02:10:00.337Z,100282.16
2022-10-24T02:10:38.312Z,100284.47
2022-10-24T02:11:09.968Z,100282.91
2022-10-24T02:11:42.720Z,100275.47
2022-10-24T02:12:16.048Z,100285.25
2022-10-24T02:12:53.941Z,100277.44
2022-10-24T02:13:50.441Z,100278.56
2022-10-24T02:14:33.545Z,100280.13
2022-10-24T02:15:12.608Z,100280.53
2022-10-24T02:15:50.037Z,100277.00
2022-10-24T02:16:22.984Z,100287.56
2022-10-24T02:16:54.529Z,100278.16
2022-10-24T02:17:26.072Z,100264.06
2022-10-24T02:17:57.931Z,100272.66
2022-10-24T02:18:30.616Z,100274.22
2022-10-24T02:19:02.384Z,100272.66
2022-10-24T02:19:33.766Z,100276.97
2022-10-24T02:20:05.913Z,100275.41
2022-10-24T02:20:45.007Z,100271.47
2022-10-24T02:21:28.264Z,100268.72
2022-10-24T02:22:25.984Z,100274.97
2022-10-24T02:23:04.107Z,100271.03
2022-10-24T02:23:46.969Z,100273.00
2022-10-24T02:24:29.175Z,100268.66
2022-10-24T02:25:06.467Z,100277.66
2022-10-24T02:26:30.334Z,100272.94
2022-10-24T02:27:07.664Z,100278.00
2022-10-24T02:28:17.891Z,100269.78
2022-10-24T02:28:53.668Z,100275.28
2022-10-24T02:29:33.216Z,100265.13
2022-10-24T02:30:20.612Z,100272.53
2022-10-24T02:31:10.224Z,100274.50
2022-10-24T02:31:48.316Z,100278.44
2022-10-24T02:32:27.821Z,100277.28
2022-10-24T02:32:59.846Z,100269.84
2022-10-24T02:33:33.936Z,100278.84
2022-10-24T02:34:08.805Z,100277.66
2022-10-24T02:34:42.034Z,100263.94
2022-10-24T02:35:16.001Z,100274.50
2022-10-24T02:35:49.833Z,100270.19
2022-10-24T02:36:27.125Z,100267.81
2022-10-24T02:36:59.463Z,100265.06
2022-10-24T02:37:33.587Z,100270.97
2022-10-24T02:38:14.239Z,100267.81
2022-10-24T02:38:48.700Z,100268.59
2022-10-24T02:39:21.903Z,100265.47
2022-10-24T02:39:56.525Z,100270.19
2022-10-24T02:40:27.902Z,100260.81
2022-10-24T02:41:02.662Z,100270.63
2022-10-24T02:41:37.510Z,100272.59
2022-10-24T02:42:11.398Z,100266.31
2022-10-24T02:42:46.001Z,100256.53
2022-10-24T02:43:20.842Z,100267.19
2022-10-24T02:43:54.999Z,100267.19
2022-10-24T02:44:27.522Z,100266.41
2022-10-24T02:45:00.066Z,100267.22
2022-10-24T02:45:33.181Z,100267.22
2022-10-24T02:46:06.054Z,100277.78
2022-10-24T02:46:38.537Z,100267.22
2022-10-24T02:47:12.736Z,100270.34
2022-10-24T02:47:46.621Z,100269.16
2022-10-24T02:48:23.350Z,100263.31
2022-10-24T02:49:00.202Z,100274.63
2022-10-24T02:49:31.683Z,100264.84
2022-10-24T02:50:03.378Z,100271.88
2022-10-24T02:50:36.411Z,100278.94
2022-10-24T02:51:08.856Z,100273.44
2022-10-24T02:51:42.984Z,100262.88
2022-10-24T02:52:14.811Z,100266.03
2022-10-24T02:52:46.643Z,100270.34
2022-10-24T02:53:21.436Z,100264.06
2022-10-24T02:53:53.616Z,100268.78
2022-10-24T02:54:24.964Z,100265.25
2022-10-24T02:54:56.429Z,100267.22
2022-10-24T02:55:27.731Z,100271.16
2022-10-24T02:55:59.045Z,100268.44
2022-10-24T02:56:30.845Z,100266.88
2022-10-24T02:57:04.018Z,100271.16
2022-10-24T02:57:35.436Z,100270.38
2022-10-24T02:58:06.755Z,100267.66
2022-10-24T02:58:38.053Z,100265.69
2022-10-24T02:59:45.725Z,100272.34
2022-10-24T03:00:18.606Z,100271.16
2022-10-24T03:00:50.005Z,100264.13
2022-10-24T03:01:21.925Z,100264.13
2022-10-24T03:01:53.305Z,100266.88
2022-10-24T03:02:24.971Z,100264.53
2022-10-24T03:02:56.367Z,100264.91
2022-10-24T03:03:27.794Z,100263.41
2022-10-24T03:03:59.112Z,100260.25
2022-10-24T03:04:30.432Z,100264.97
2022-10-24T03:05:01.805Z,100268.47
2022-10-24T03:05:33.098Z,100267.69
2022-10-24T03:06:04.896Z,100273.59
2022-10-24T03:06:36.247Z,100274.38
2022-10-24T03:07:07.576Z,100264.59
2022-10-24T03:07:38.990Z,100265.38
2022-10-24T03:08:12.065Z,100274.38
2022-10-24T03:08:43.368Z,100270.50
2022-10-24T03:09:14.869Z,100269.72
2022-10-24T03:09:46.164Z,100274.03
2022-10-24T03:10:17.507Z,100272.88
2022-10-24T03:10:48.795Z,100277.94
2022-10-24T03:11:20.103Z,100269.72
2022-10-24T03:11:51.442Z,100268.53
2022-10-24T03:12:24.116Z,100270.88
2022-10-24T03:12:55.475Z,100274.03
2022-10-24T03:13:26.786Z,100279.09
2022-10-24T03:13:58.148Z,100270.50
2022-10-24T03:14:29.547Z,100275.63
2022-10-24T03:15:00.911Z,100276.03
2022-10-24T03:15:32.760Z,100281.13
2022-10-24T03:16:06.715Z,100271.75
2022-10-24T03:16:40.579Z,100271.34
2022-10-24T03:17:11.994Z,100277.22
2022-10-24T03:17:44.040Z,100280.34
2022-10-24T03:18:15.611Z,100275.25
2022-10-24T03:18:48.060Z,100282.72
2022-10-24T03:19:19.973Z,100277.22
2022-10-24T03:19:51.333Z,100272.94
2022-10-24T03:20:24.620Z,100267.88
2022-10-24T03:20:56.002Z,100272.59
2022-10-24T03:21:27.545Z,100273.38
2022-10-24T03:21:58.905Z,100273.00
2022-10-24T03:22:30.676Z,100274.56
2022-10-24T03:23:02.371Z,100278.88
2022-10-24T03:23:33.940Z,100271.06
2022-10-24T03:24:05.583Z,100274.56
2022-10-24T03:24:43.967Z,100275.34
2022-10-24T03:25:25.893Z,100276.13
2022-10-24T03:25:58.668Z,100276.91
2022-10-24T03:26:29.983Z,100274.56
2022-10-24T03:27:01.270Z,100271.81
2022-10-24T03:27:33.970Z,100275.72
2022-10-24T03:28:05.560Z,100272.22
2022-10-24T03:28:36.949Z,100279.66
2022-10-24T03:29:08.727Z,100275.72
2022-10-24T03:29:40.206Z,100278.47
2022-10-24T03:30:12.065Z,100266.72
2022-10-24T03:30:43.358Z,100274.97
2022-10-24T03:31:14.659Z,100272.22
2022-10-24T03:31:46.425Z,100281.63
2022-10-24T03:32:17.843Z,100276.56
2022-10-24T03:32:49.199Z,100270.28
2022-10-24T03:33:20.532Z,100272.25
2022-10-24T03:33:51.933Z,100275.41
2022-10-24T03:34:23.276Z,100278.53
2022-10-24T03:34:54.672Z,100275.78
2022-10-24T03:35:25.973Z,100278.53
2022-10-24T03:35:57.714Z,100266.38
2022-10-24T03:36:29.101Z,100264.44
2022-10-24T03:37:00.396Z,100273.03
2022-10-24T03:37:31.739Z,100275.41
2022-10-24T03:38:03.289Z,100278.94
2022-10-24T03:38:34.612Z,100280.13
2022-10-24T03:39:06.154Z,100275.41
2022-10-24T03:39:37.512Z,100272.31
2022-10-24T03:40:10.135Z,100272.72
2022-10-24T03:40:41.796Z,100271.53
2022-10-24T03:41:13.168Z,100281.72
2022-10-24T03:41:44.531Z,100281.31
2022-10-24T03:42:15.837Z,100283.28
2022-10-24T03:42:47.409Z,100279.34
2022-10-24T03:43:19.916Z,100277.03
2022-10-24T03:43:51.312Z,100273.88
2022-10-24T03:44:22.632Z,100270.34
2022-10-24T03:44:53.931Z,100269.16
2022-10-24T03:45:25.448Z,100271.91
2022-10-24T03:45:56.796Z,100276.59
2022-10-24T03:46:28.231Z,100282.09
2022-10-24T03:46:59.746Z,100280.13
2022-10-24T03:47:31.070Z,100279.00
2022-10-24T03:48:02.364Z,100273.50
2022-10-24T03:48:33.871Z,100273.50
2022-10-24T03:49:05.185Z,100280.53
2022-10-24T03:49:36.616Z,100280.53
2022-10-24T03:50:08.428Z,100282.50
2022-10-24T03:50:40.049Z,100272.31
2022-10-24T03:51:11.352Z,100274.69
2022-10-24T03:51:42.685Z,100281.31
2022-10-24T03:52:14.027Z,100280.13
2022-10-24T03:52:46.222Z,100273.88
2022-10-24T03:53:17.844Z,100274.22
2022-10-24T03:53:49.146Z,100278.53
2022-10-24T03:54:20.471Z,100279.72
2022-10-24T03:54:51.797Z,100273.88
2022-10-24T03:55:23.151Z,100280.06
2022-10-24T03:55:56.932Z,100281.28
2022-10-24T03:56:29.269Z,100270.28
2022-10-24T03:57:00.601Z,100265.63
2022-10-24T03:57:32.172Z,100268.34
2022-10-24T03:58:03.511Z,100275.38
2022-10-24T03:58:35.044Z,100276.91
2022-10-24T03:59:06.544Z,100265.16
2022-10-24T03:59:37.981Z,100267.13
2022-10-24T04:00:09.932Z,100268.31
2022-10-24T04:00:42.478Z,100272.22
2022-10-24T04:01:18.462Z,100276.53
2022-10-24T04:01:50.035Z,100276.91
2022-10-24T04:02:21.437Z,100265.56
2022-10-24T04:02:52.732Z,100273.38
2022-10-24T04:03:25.467Z,100275.34
2022-10-24T04:03:56.797Z,100272.59
2022-10-24T04:04:28.176Z,100282.81
2022-10-24T04:04:59.477Z,100271.81
2022-10-24T04:05:30.786Z,100274.16
2022-10-24T04:06:02.211Z,100277.69
2022-10-24T04:06:36.360Z,100276.91
2022-10-24T04:07:08.295Z,100270.19
2022-10-24T04:07:40.033Z,100279.56
2022-10-24T04:08:11.450Z,100271.41
2022-10-24T04:08:42.746Z,100271.34
2022-10-24T04:09:14.085Z,100264.72
2022-10-24T04:09:45.380Z,100276.03
2022-10-24T04:10:16.844Z,100270.91
2022-10-24T04:10:49.047Z,100278.72
2022-10-24T04:11:20.361Z,100275.63
2022-10-24T04:11:53.350Z,100276.75
2022-10-24T04:12:24.959Z,100277.53
2022-10-24T04:12:56.359Z,100265.44
2022-10-24T04:13:27.758Z,100276.00
2022-10-24T04:14:32.109Z,100275.63
2022-10-24T04:15:05.090Z,100274.03
2022-10-24T04:15:36.794Z,100273.59
2022-10-24T04:16:08.393Z,100263.81
2022-10-24T04:16:39.895Z,100275.16
2022-10-24T04:17:11.209Z,100266.16
2022-10-24T04:17:42.796Z,100254.81
2022-10-24T04:18:14.393Z,100274.38
2022-10-24T04:18:46.085Z,100273.59
2022-10-24T04:19:18.224Z,100261.84
2022-10-24T04:19:49.613Z,100263.41
2022-10-24T04:20:22.896Z,100258.75
2022-10-24T04:20:54.197Z,100262.63
2022-10-24T04:21:25.579Z,100267.34
2022-10-24T04:21:59.925Z,100261.84
2022-10-24T04:22:31.310Z,100261.06
2022-10-24T04:23:04.477Z,100274.78
2022-10-24T04:23:40.861Z,100262.28
2022-10-24T04:24:12.396Z,100271.28
2022-10-24T04:24:44.400Z,100265.78
2022-10-24T04:25:16.488Z,100263.47
2022-10-24T04:25:47.833Z,100276.00
2022-10-24T04:26:19.207Z,100270.91
2022-10-24T04:26:50.515Z,100272.09
2022-10-24T04:27:21.840Z,100270.13
2022-10-24T04:27:53.412Z,100269.38
2022-10-24T04:28:24.719Z,100271.34
2022-10-24T04:28:56.019Z,100267.81
2022-10-24T04:29:27.373Z,100269.72
2022-10-24T04:29:58.680Z,100257.97
2022-10-24T04:30:30.168Z,100262.28
2022-10-24T04:31:01.617Z,100259.94
2022-10-24T04:31:32.919Z,100261.84
2022-10-24T04:32:04.359Z,100270.09
2022-10-24T04:32:35.848Z,100275.16
2022-10-24T04:33:07.160Z,100263.81
2022-10-24T04:33:38.976Z,100260.66
2022-10-24T04:34:10.836Z,100255.94
2022-10-24T04:34:42.165Z,100266.16
2022-10-24T04:35:14.193Z,100267.34
2022-10-24T04:35:50.215Z,100259.47
2022-10-24T04:36:21.574Z,100273.19
2022-10-24T04:36:53.400Z,100263.00
2022-10-24T04:37:24.720Z,100265.72
2022-10-24T04:37:56.232Z,100257.09
2022-10-24T04:38:32.552Z,100256.38
2022-10-24T04:39:05.131Z,100264.53
2022-10-24T04:39:36.593Z,100262.56
2022-10-24T04:40:08.352Z,100266.88
2022-10-24T04:40:39.681Z,100266.88
2022-10-24T04:41:12.197Z,100268.06
2022-10-24T04:41:43.807Z,100268.06
2022-10-24T04:42:15.313Z,100264.91
2022-10-24T04:42:47.000Z,100261.38
2022-10-24T04:43:19.423Z,100258.66
2022-10-24T04:43:52.791Z,100266.50
2022-10-24T04:44:24.203Z,100267.66
2022-10-24T04:44:55.471Z,100261.38
2022-10-24T04:45:26.805Z,100262.56
2022-10-24T04:45:58.184Z,100261.75
2022-10-24T04:46:29.571Z,100263.34
2022-10-24T04:47:00.906Z,100259.00
2022-10-24T04:47:32.544Z,100260.56
2022-10-24T04:48:04.011Z,100264.84
2022-10-24T04:48:35.591Z,100266.00
2022-10-24T04:49:06.950Z,100263.25
2022-10-24T04:49:38.265Z,100263.66
2022-10-24T04:50:10.213Z,100260.06
2022-10-24T04:50:43.200Z,100257.31
2022-10-24T04:51:18.537Z,100250.63
2022-10-24T04:51:52.873Z,100249.06
2022-10-24T04:52:24.413Z,100256.13
2022-10-24T04:52:55.695Z,100258.09
2022-10-24T04:53:27.256Z,100260.81
2022-10-24T04:53:58.570Z,100253.38
2022-10-24T04:54:29.871Z,100261.59
2022-10-24T04:55:01.300Z,100258.84
2022-10-24T04:55:32.737Z,100254.56
2022-10-24T04:56:04.398Z,100259.22
2022-10-24T04:56:35.705Z,100258.44
2022-10-24T04:57:07.201Z,100259.22
2022-10-24T04:57:38.554Z,100254.94
2022-10-24T04:58:09.861Z,100255.69
2022-10-24T04:58:41.214Z,100259.63
2022-10-24T04:59:12.544Z,100254.94
2022-10-24T04:59:43.940Z,100259.22
2022-10-24T05:00:15.604Z,100261.97
2022-10-24T05:00:49.622Z,100260.00
2022-10-24T05:01:21.037Z,100251.00
2022-10-24T05:01:54.430Z,100261.97
2022-10-24T05:02:25.876Z,100258.44
2022-10-24T05:02:59.113Z,100254.16
2022-10-24T05:03:30.725Z,100258.84
2022-10-24T05:04:38.484Z,100255.34
2022-10-24T05:05:09.836Z,100262.78
2022-10-24T05:05:41.145Z,100256.53
2022-10-24T05:06:12.568Z,100267.09
2022-10-24T05:06:45.043Z,100260.06
2022-10-24T05:07:16.663Z,100265.53
2022-10-24T05:07:48.254Z,100263.56
2022-10-24T05:08:19.604Z,100256.97
2022-10-24T05:08:50.912Z,100271.81
2022-10-24T05:09:22.445Z,100258.84
2022-10-24T05:09:53.756Z,100261.59
2022-10-24T05:10:25.050Z,100263.16
2022-10-24T05:10:56.377Z,100261.97
2022-10-24T05:11:27.656Z,100257.66
2022-10-24T05:11:59.033Z,100265.91
2022-10-24T05:12:30.369Z,100259.22
2022-10-24T05:13:02.095Z,100259.22
2022-10-24T05:13:36.611Z,100260.78
2022-10-24T05:14:08.254Z,100260.34
2022-10-24T05:14:39.542Z,100260.00
2022-10-24T05:15:11.324Z,100259.22
2022-10-24T05:15:43.364Z,100256.84
2022-10-24T05:16:14.668Z,100255.28
2022-10-24T05:16:48.288Z,100255.28
2022-10-24T05:17:19.640Z,100263.09
2022-10-24T05:17:51.152Z,100259.56
2022-10-24T05:18:22.460Z,100260.78
2022-10-24T05:18:53.755Z,100256.47
2022-10-24T05:19:25.045Z,100260.41
2022-10-24T05:19:56.377Z,100254.16
2022-10-24T05:20:28.345Z,100260.41
2022-10-24T05:21:00.745Z,100260.41
2022-10-24T05:21:33.725Z,100259.22
2022-10-24T05:22:07.276Z,100259.22
2022-10-24T05:22:41.403Z,100263.16
2022-10-24T05:23:12.968Z,100263.16
2022-10-24T05:23:44.321Z,100260.00
2022-10-24T05:24:16.326Z,100264.72
2022-10-24T05:24:47.620Z,100263.94
2022-10-24T05:25:19.687Z,100259.22
2022-10-24T05:25:51.112Z,100260.78
2022-10-24T05:26:22.423Z,100263.53
2022-10-24T05:26:53.723Z,100260.00
2022-10-24T05:27:25.053Z,100261.56
2022-10-24T05:27:56.431Z,100260.78
2022-10-24T05:28:27.776Z,100261.97
2022-10-24T05:28:59.107Z,100266.25
2022-10-24T05:29:30.597Z,100251.75
2022-10-24T05:30:02.091Z,100269.00
2022-10-24T05:30:33.477Z,100266.25
2022-10-24T05:31:05.009Z,100269.00
2022-10-24T05:31:36.358Z,100264.72
2022-10-24T05:32:07.780Z,100265.84
2022-10-24T05:32:39.892Z,100264.66
2022-10-24T05:33:12.169Z,100272.09
2022-10-24T05:33:43.478Z,100258.38
2022-10-24T05:34:14.827Z,100259.56
2022-10-24T05:34:46.164Z,100253.25
2022-10-24T05:35:17.600Z,100263.03
2022-10-24T05:35:50.149Z,100252.06
2022-10-24T05:36:21.481Z,100252.84
2022-10-24T05:36:52.838Z,100259.88
2022-10-24T05:37:24.219Z,100265.38
2022-10-24T05:37:55.747Z,100257.91
2022-10-24T05:38:27.056Z,100257.50
2022-10-24T05:38:58.386Z,100255.16
2022-10-24T05:39:29.728Z,100252.78
2022-10-24T05:40:01.027Z,100266.50
2022-10-24T05:40:32.329Z,100247.28
2022-10-24T05:41:03.692Z,100259.06
2022-10-24T05:41:35.036Z,100250.03
2022-10-24T05:42:06.433Z,100253.16
2022-10-24T05:42:38.672Z,100257.06
2022-10-24T05:43:10.016Z,100259.81
2022-10-24T05:43:41.313Z,100246.88
2022-10-24T05:44:13.057Z,100257.06
2022-10-24T05:44:44.404Z,100263.34
2022-10-24T05:45:15.726Z,100247.28
2022-10-24T05:46:20.356Z,100254.34
2022-10-24T05:46:52.795Z,100251.94
2022-10-24T05:47:25.791Z,100252.78
2022-10-24T05:47:59.749Z,100248.06
2022-10-24T05:48:31.043Z,100251.22
2022-10-24T05:49:02.523Z,100258.28
2022-10-24T05:49:33.898Z,100242.22
2022-10-24T05:50:06.345Z,100251.22
2022-10-24T05:50:37.637Z,100252.78
2022-10-24T05:51:09.057Z,100255.88
2022-10-24T05:51:40.426Z,100249.63
2022-10-24T05:52:11.747Z,100255.88
2022-10-24T05:52:46.228Z,100259.06
2022-10-24T05:53:18.570Z,100258.22
2022-10-24T05:53:49.901Z,100242.94
2022-10-24T05:54:21.289Z,100258.63
2022-10-24T05:55:06.301Z,100253.50
2022-10-24T05:55:39.459Z,100263.25
2022-10-24T05:56:10.905Z,100252.28
2022-10-24T05:56:42.217Z,100255.03
2022-10-24T05:57:13.763Z,100259.31
2022-10-24T05:57:45.861Z,100254.59
2022-10-24T05:58:22.136Z,100260.50
2022-10-24T05:58:56.833Z,100255.03
2022-10-24T05:59:28.273Z,100255.03
2022-10-24T05:59:59.610Z,100257.03
2022-10-24T06:00:33.744Z,100260.97
2022-10-24T06:01:05.358Z,100254.69
2022-10-24T06:01:37.165Z,100263.69
2022-10-24T06:02:17.035Z,100252.28
2022-10-24T06:02:48.614Z,100255.78
2022-10-24T06:03:19.953Z,100255.03
2022-10-24T06:03:51.330Z,100253.06
2022-10-24T06:04:22.643Z,100251.84
2022-10-24T06:04:56.029Z,100263.63
2022-10-24T06:05:27.476Z,100244.03
2022-10-24T06:06:03.971Z,100263.97
2022-10-24T06:06:39.802Z,100247.50
2022-10-24T06:07:11.398Z,100243.97
2022-10-24T06:07:43.288Z,100237.72
2022-10-24T06:08:14.893Z,100241.31
2022-10-24T06:08:46.315Z,100244.75
2022-10-24T06:09:17.745Z,100252.63
2022-10-24T06:09:49.083Z,100256.56
2022-10-24T06:10:20.461Z,100260.44
2022-10-24T06:10:52.194Z,100259.69
2022-10-24T06:11:23.709Z,100260.44
2022-10-24T06:11:55.033Z,100252.63
2022-10-24T06:12:26.567Z,100255.03
2022-10-24T06:12:57.884Z,100259.75
2022-10-24T06:13:33.821Z,100261.28
2022-10-24T06:14:07.688Z,100256.66
2022-10-24T06:14:39.527Z,100263.69
2022-10-24T06:15:12.725Z,100255.88
2022-10-24T06:15:44.736Z,100264.53
2022-10-24T06:16:16.037Z,100266.88
2022-10-24T06:16:47.331Z,100260.25
2022-10-24T06:17:18.616Z,100262.22
2022-10-24T06:17:50.245Z,100262.22
2022-10-24T06:18:21.775Z,100262.97
2022-10-24T06:18:53.701Z,100270.03
2022-10-24T06:19:25.008Z,100271.59
2022-10-24T06:19:56.324Z,100270.81
2022-10-24T06:20:27.662Z,100269.59
2022-10-24T06:21:00.601Z,100271.94
2022-10-24T06:21:31.957Z,100266.09
2022-10-24T06:22:05.095Z,100280.16
2022-10-24T06:22:36.488Z,100275.47
2022-10-24T06:23:07.826Z,100274.69
2022-10-24T06:23:39.221Z,100272.34
2022-10-24T06:24:10.568Z,100269.19
2022-10-24T06:24:41.909Z,100276.97
2022-10-24T06:25:14.225Z,100264.47
2022-10-24T06:25:45.695Z,100266.44
2022-10-24T06:26:20.350Z,100269.97
2022-10-24T06:26:54.579Z,100276.97
2022-10-24T06:27:25.917Z,100276.97
2022-10-24T06:27:57.469Z,100280.94
2022-10-24T06:28:29.035Z,100282.47
2022-10-24T06:29:00.401Z,100278.53
2022-10-24T06:29:32.452Z,100274.69
2022-10-24T06:30:05.269Z,100280.50
2022-10-24T06:30:36.804Z,100276.97
2022-10-24T06:31:08.808Z,100275.00